Terminal Aerodrome Forecast
Issued by NWS

Home | Current Version | Previous Version | Text Only | Print | Product List | Glossary On
Versions: 1 2 3 4 5 6 7 8 9 10 11 12 13 14 15 16 17 18 19 20 21 22 23 24 25 26 27 28 29 30 31 32 33 34 35 36 37
000
FTUS45 KBOU 301121
TAFAPA
TAF
KAPA 301121Z 3012/3112 04007KT P6SM SCT003 BKN009 OVC015
      TEMPO 3012/3015 3SM -RA BR BKN003 OVC009
     FM301500 02010KT P6SM FEW006 BKN012 OVC030
      TEMPO 3015/3019 4SM -RA BR BKN007 OVC015
     FM301900 02012KT P6SM VCTS SCT025CB OVC040
      TEMPO 3019/3023 5SM -SHRA BKN025
     FM302300 34008KT P6SM SCT035 BKN060 PROB30 3023/3102 -SHRA
      BKN040
     FM310400 22006KT P6SM SCT045 BKN080=

USA.gov is the U.S. government's official web portal to all federal, state and local government web resources and services.